Time;durP1;ratioP1;P1;durP2;ratioP2;P2;SDS_P1;SDS_P2;PMS_P1;PMS_P2;Temp;Humidity;BMP_temperature;BMP_pressure;BME280_temperature;BME280_humidity;BME280_pressure;Samples;Min_cycle;Max_cycle;Signal;HPM_P1;HPM_P2
2024/02/09 00:02:06;;;;;;;4.82;2.17;;;14.50;51.60;;;;;;5027444;28;20056;-57
2024/02/09 00:04:38;;;;;;;5.43;2.63;;;14.50;51.60;;;;;;5030773;28;20057;-60
2024/02/09 00:07:06;;;;;;;24.35;6.05;;;14.40;51.70;;;;;;5015432;28;20426;-66
2024/02/09 00:09:35;;;;;;;23.35;5.78;;;14.40;51.80;;;;;;5020349;28;20065;-59
2024/02/09 00:12:05;;;;;;;42.13;10.07;;;14.40;51.80;;;;;;5032910;28;20053;-59
2024/02/09 00:14:36;;;;;;;5.55;1.85;;;14.40;51.80;;;;;;5037039;28;20057;-57
2024/02/09 00:17:05;;;;;;;2.97;1.83;;;14.40;51.80;;;;;;5029431;28;20570;-58
2024/02/09 00:19:34;;;;;;;2.55;1.83;;;14.50;51.80;;;;;;5046457;28;20065;-58
2024/02/09 00:22:03;;;;;;;6.07;2.25;;;14.40;51.90;;;;;;5037156;28;20045;-56
2024/02/09 00:24:32;;;;;;;22.63;6.07;;;14.50;51.90;;;;;;5044684;28;20057;-59
2024/02/09 00:27:04;;;;;;;3.88;2.08;;;14.50;51.90;;;;;;5043288;28;20525;-56
2024/02/09 00:29:33;;;;;;;26.75;7.15;;;14.50;51.90;;;;;;5036396;28;20079;-58
2024/02/09 00:32:04;;;;;;;4.00;1.80;;;14.50;51.90;;;;;;5036909;28;20168;-57
2024/02/09 00:34:34;;;;;;;12.82;3.05;;;14.50;51.80;;;;;;5027963;28;20065;-61
2024/02/09 00:37:04;;;;;;;1.55;1.42;;;14.40;51.80;;;;;;5029630;28;20057;-58
2024/02/09 00:39:33;;;;;;;4.75;1.70;;;14.40;51.80;;;;;;5039942;28;20075;-58
2024/02/09 00:42:02;;;;;;;10.45;2.97;;;14.30;51.80;;;;;;5033309;28;20056;-57
2024/02/09 00:44:33;;;;;;;12.93;4.22;;;14.30;51.90;;;;;;5042999;28;20052;-58
2024/02/09 00:47:02;;;;;;;2.90;1.27;;;14.40;52.00;;;;;;5035417;28;20041;-58
2024/02/09 00:49:32;;;;;;;25.50;6.03;;;14.40;52.00;;;;;;5039332;28;20089;-59
2024/02/09 00:52:01;;;;;;;14.10;2.88;;;14.40;52.00;;;;;;5040218;28;20138;-58
2024/02/09 00:54:30;;;;;;;11.35;3.63;;;14.50;52.10;;;;;;5038159;28;20052;-57
2024/02/09 00:56:59;;;;;;;4.88;1.67;;;14.50;52.00;;;;;;5031436;28;20494;-56
2024/02/09 00:59:29;;;;;;;4.05;1.80;;;14.40;52.20;;;;;;5039934;28;20152;-57
2024/02/09 01:01:58;;;;;;;8.98;2.88;;;14.50;51.90;;;;;;5039758;28;20053;-57
2024/02/09 01:04:35;;;;;;;4.28;1.92;;;14.60;51.90;;;;;;5042384;28;20041;-59
2024/02/09 01:07:05;;;;;;;4.40;2.08;;;14.60;51.90;;;;;;5035949;28;20064;-58
2024/02/09 01:09:35;;;;;;;5.70;2.35;;;14.60;51.90;;;;;;5037851;28;20115;-57
2024/02/09 02:45:52;;;;;;;2.92;1.60;;;14.60;51.20;;;;;;5039252;28;20059;-54
2024/02/09 03:05:01;;;;;;;10.40;2.13;;;14.60;51.30;;;;;;5042249;28;20049;-55
2024/02/09 03:07:30;;;;;;;7.18;1.77;;;14.60;51.30;;;;;;5040845;28;20076;-56
2024/02/09 03:10:18;;;;;;;3.20;1.63;;;14.60;51.40;;;;;;5039343;28;20537;-54
2024/02/09 03:12:47;;;;;;;1.95;1.38;;;14.50;51.30;;;;;;5041252;28;20041;-55
2024/02/09 03:15:18;;;;;;;4.65;1.77;;;14.50;51.40;;;;;;5041510;28;20508;-56
2024/02/09 03:17:47;;;;;;;17.00;2.45;;;14.50;51.40;;;;;;5031462;28;20041;-55
2024/02/09 03:20:15;;;;;;;1.92;1.50;;;14.60;51.40;;;;;;5045135;28;20061;-55
2024/02/09 03:22:44;;;;;;;5.22;2.17;;;14.60;51.40;;;;;;5039669;28;20062;-56
2024/02/09 03:25:13;;;;;;;22.15;8.48;;;14.70;51.40;;;;;;5046837;28;20095;-57
2024/02/09 03:27:42;;;;;;;51.22;15.48;;;14.70;51.40;;;;;;5039012;28;20065;-64
2024/02/09 03:30:10;;;;;;;27.40;7.55;;;14.80;51.40;;;;;;5034411;28;20063;-55
2024/02/09 03:32:44;;;;;;;2.67;1.70;;;14.80;51.40;;;;;;5039562;28;20131;-53
2024/02/09 03:35:13;;;;;;;13.65;4.88;;;14.90;51.40;;;;;;5041866;28;20061;-60
2024/02/09 03:37:44;;;;;;;14.50;5.93;;;14.90;51.30;;;;;;5039428;28;20053;-55
2024/02/09 03:40:13;;;;;;;8.20;1.67;;;14.90;51.40;;;;;;5036241;28;20052;-54
2024/02/09 03:42:42;;;;;;;10.43;1.77;;;14.90;51.40;;;;;;5039402;28;20057;-56
2024/02/09 03:45:10;;;;;;;3.92;2.03;;;14.90;51.40;;;;;;5040218;28;20059;-55
2024/02/09 03:47:41;;;;;;;2.80;1.90;;;14.90;51.50;;;;;;5038523;28;20068;-54
2024/02/09 03:50:11;;;;;;;9.63;1.83;;;14.90;51.30;;;;;;5036048;28;20057;-65
2024/02/09 03:52:44;;;;;;;6.00;2.42;;;14.90;51.30;;;;;;5044790;28;20047;-55
2024/02/09 03:55:16;;;;;;;5.97;2.38;;;14.90;51.30;;;;;;5038179;28;20065;-56
2024/02/09 03:57:46;;;;;;;4.32;1.63;;;15.00;51.40;;;;;;5039009;28;20111;-49
2024/02/09 04:00:15;;;;;;;3.38;1.60;;;15.00;51.20;;;;;;5040740;28;20072;-54
2024/02/09 04:02:46;;;;;;;7.00;2.78;;;15.00;51.20;;;;;;5034901;28;20064;-54
2024/02/09 04:05:16;;;;;;;2.85;1.67;;;15.00;51.90;;;;;;5039752;28;20069;-55
2024/02/09 04:07:45;;;;;;;7.05;2.40;;;15.00;51.20;;;;;;5039940;28;20495;-55
2024/02/09 04:10:13;;;;;;;3.00;1.83;;;15.00;51.20;;;;;;5042290;28;20045;-54
2024/02/09 04:13:01;;;;;;;5.28;2.50;;;15.00;51.20;;;;;;5040858;28;20073;-54
2024/02/09 04:15:30;;;;;;;2.50;1.90;;;15.00;51.20;;;;;;5041161;28;20048;-56
2024/02/09 04:18:03;;;;;;;4.05;2.22;;;15.00;51.20;;;;;;5038109;28;20135;-55
2024/02/09 04:20:32;;;;;;;6.13;2.03;;;15.00;51.20;;;;;;5041378;28;20439;-56
2024/02/09 04:23:01;;;;;;;2.08;1.38;;;15.00;51.10;;;;;;5031978;28;20053;-54
2024/02/09 04:25:29;;;;;;;2.00;1.50;;;15.00;51.20;;;;;;5040972;28;20106;-55
2024/02/09 04:28:00;;;;;;;4.03;1.92;;;15.00;51.20;;;;;;5042239;28;20059;-56
2024/02/09 04:30:28;;;;;;;8.07;2.40;;;15.00;51.10;;;;;;5039670;28;20063;-54
2024/02/09 04:32:57;;;;;;;6.10;2.50;;;14.90;51.10;;;;;;5038759;28;20061;-54
2024/02/09 04:35:27;;;;;;;7.43;1.88;;;14.90;51.10;;;;;;5039968;28;20155;-54
2024/02/09 04:37:55;;;;;;;3.30;1.95;;;14.90;51.20;;;;;;5041409;28;20060;-55
2024/02/09 04:40:24;;;;;;;5.47;1.98;;;14.90;51.20;;;;;;5047476;28;20048;-56
2024/02/09 04:42:53;;;;;;;2.45;1.58;;;14.90;51.10;;;;;;5037030;28;20052;-53
2024/02/09 04:45:22;;;;;;;4.32;2.13;;;14.90;51.10;;;;;;5040380;28;20049;-56
2024/02/09 04:47:51;;;;;;;2.75;1.95;;;14.90;51.30;;;;;;5038249;28;20049;-55
2024/02/09 04:50:21;;;;;;;6.82;2.30;;;14.90;51.20;;;;;;5037256;28;20053;-55
2024/02/09 04:52:51;;;;;;;4.63;2.45;;;14.90;51.20;;;;;;5039265;28;20354;-54
2024/02/09 04:55:19;;;;;;;12.32;1.73;;;14.90;51.30;;;;;;5039490;28;20064;-53
2024/02/09 04:57:48;;;;;;;10.73;2.45;;;14.90;51.30;;;;;;5030959;28;20041;-51
2024/02/09 05:00:16;;;;;;;4.05;2.13;;;14.90;51.20;;;;;;5026982;28;20051;-56
2024/02/09 05:02:45;;;;;;;2.97;1.40;;;14.90;51.20;;;;;;5032028;28;20130;-56
2024/02/09 05:05:13;;;;;;;3.38;1.83;;;14.90;51.20;;;;;;5039560;28;20057;-54
2024/02/09 05:07:42;;;;;;;4.80;1.98;;;14.90;51.20;;;;;;5036218;28;20036;-55
2024/02/09 05:10:12;;;;;;;5.28;2.30;;;14.80;51.10;;;;;;5030483;28;20636;-54
2024/02/09 05:12:42;;;;;;;7.45;1.88;;;14.80;51.20;;;;;;5042877;28;20530;-54
2024/02/09 05:15:10;;;;;;;7.78;2.13;;;14.70;51.10;;;;;;5053510;28;20090;-51
2024/02/09 05:17:39;;;;;;;3.90;1.92;;;14.70;51.20;;;;;;5040087;28;20056;-51
2024/02/09 05:20:11;;;;;;;4.63;2.10;;;14.70;51.20;;;;;;5036876;28;20048;-52
2024/02/09 05:22:39;;;;;;;4.05;1.92;;;14.60;51.20;;;;;;5040973;28;20064;-53
2024/02/09 05:25:08;;;;;;;9.55;2.15;;;14.60;51.20;;;;;;5042394;28;20410;-55
2024/02/09 05:27:37;;;;;;;4.15;2.13;;;14.60;51.20;;;;;;5042131;28;20092;-52
2024/02/09 05:30:08;;;;;;;5.65;2.40;;;14.60;51.30;;;;;;5039170;28;20137;-55
2024/02/09 05:32:36;;;;;;;9.00;3.45;;;14.50;51.30;;;;;;5033729;28;20053;-57
2024/02/09 05:35:07;;;;;;;4.00;2.47;;;14.60;51.40;;;;;;4997515;28;20057;-56
2024/02/09 05:37:36;;;;;;;4.22;2.25;;;14.60;51.40;;;;;;5030949;28;20754;-58
2024/02/09 05:40:05;;;;;;;4.03;2.50;;;14.70;51.30;;;;;;5030953;28;20049;-57
2024/02/09 05:42:33;;;;;;;13.25;3.20;;;14.80;51.30;;;;;;5034700;28;20445;-56
2024/02/09 05:45:05;;;;;;;4.28;2.47;;;14.80;51.10;;;;;;5028227;28;21055;-55
2024/02/09 05:47:34;;;;;;;7.97;3.20;;;14.80;51.10;;;;;;5033028;28;20048;-54
2024/02/09 05:50:02;;;;;;;5.57;2.58;;;14.90;51.10;;;;;;5031773;28;20148;-54
2024/02/09 05:52:31;;;;;;;9.68;2.22;;;14.90;51.10;;;;;;5028823;28;20594;-52
2024/02/09 05:54:59;;;;;;;18.58;6.32;;;15.00;51.10;;;;;;5023080;28;20466;-54
2024/02/09 05:57:28;;;;;;;8.65;2.75;;;15.00;51.00;;;;;;5027013;28;20131;-54
2024/02/09 05:59:58;;;;;;;8.68;2.83;;;14.90;51.00;;;;;;5031320;28;20061;-55
2024/02/09 06:02:30;;;;;;;17.50;4.28;;;14.90;51.60;;;;;;5025918;28;20455;-60
2024/02/09 06:04:59;;;;;;;17.10;3.35;;;14.90;51.00;;;;;;5032610;28;20144;-55
2024/02/09 06:07:29;;;;;;;14.48;3.80;;;14.80;51.30;;;;;;5022866;28;20053;-56
2024/02/09 06:09:58;;;;;;;13.65;2.92;;;14.80;51.00;;;;;;5029266;28;20053;-54
2024/02/09 06:12:26;;;;;;;7.35;3.15;;;14.80;51.00;;;;;;5028208;28;20156;-57
2024/02/09 06:14:59;;;;;;;7.47;2.55;;;14.80;51.00;;;;;;5028480;28;20068;-55
2024/02/09 06:17:31;;;;;;;5.85;2.50;;;14.80;51.70;;;;;;5020811;28;21232;-56
2024/02/09 06:20:00;;;;;;;8.20;2.17;;;14.80;51.00;;;;;;5027872;28;20056;-58
2024/02/09 06:22:28;;;;;;;8.60;2.63;;;14.80;51.10;;;;;;5029112;28;20053;-56
2024/02/09 06:24:57;;;;;;;3.65;2.20;;;14.80;51.10;;;;;;5026680;28;20518;-53
2024/02/09 06:27:27;;;;;;;7.72;3.08;;;14.80;51.00;;;;;;5028646;28;20055;-57
2024/02/09 06:29:55;;;;;;;3.30;1.90;;;14.80;51.00;;;;;;5026745;28;20064;-60
2024/02/09 06:32:23;;;;;;;6.22;2.45;;;14.80;51.00;;;;;;5018376;28;22647;-58
2024/02/09 06:34:53;;;;;;;7.25;2.60;;;14.90;51.00;;;;;;5027466;28;20061;-54
2024/02/09 06:37:22;;;;;;;18.50;3.08;;;14.80;51.00;;;;;;5026659;28;20071;-52
2024/02/09 06:39:51;;;;;;;5.03;2.53;;;14.80;51.00;;;;;;5028803;28;20076;-61
2024/02/09 06:42:20;;;;;;;8.10;2.85;;;14.80;51.00;;;;;;5028527;28;20053;-56
2024/02/09 06:44:49;;;;;;;4.22;2.28;;;14.80;51.00;;;;;;5021600;28;20060;-59
2024/02/09 06:47:17;;;;;;;6.50;2.80;;;14.80;51.00;;;;;;5031360;28;20411;-57
2024/02/09 06:49:47;;;;;;;9.95;2.65;;;14.80;50.90;;;;;;5031008;28;20557;-55
2024/02/09 06:52:18;;;;;;;5.50;2.75;;;14.90;51.00;;;;;;5030880;28;20088;-56
2024/02/09 06:54:47;;;;;;;7.20;2.33;;;14.90;50.90;;;;;;5029666;28;20056;-56
2024/02/09 06:57:15;;;;;;;13.13;2.35;;;14.90;50.80;;;;;;5021171;28;20064;-55
2024/02/09 06:59:45;;;;;;;21.70;4.53;;;14.80;50.90;;;;;;5030609;28;20053;-57
2024/02/09 07:02:13;;;;;;;4.95;2.47;;;14.80;50.80;;;;;;5025100;28;20063;-56
2024/02/09 07:04:42;;;;;;;5.40;2.65;;;14.80;50.80;;;;;;5028270;28;20107;-55
2024/02/09 07:07:11;;;;;;;14.57;3.78;;;14.80;50.80;;;;;;5031244;28;20530;-57
2024/02/09 07:09:42;;;;;;;15.88;2.88;;;14.80;50.80;;;;;;5022677;28;20049;-57
2024/02/09 07:12:10;;;;;;;8.02;3.67;;;14.80;50.80;;;;;;5029264;28;20049;-68
2024/02/09 07:14:40;;;;;;;5.63;3.03;;;14.80;50.80;;;;;;5029032;28;20055;-56
2024/02/09 07:17:08;;;;;;;22.65;3.42;;;14.90;50.80;;;;;;5026551;28;20064;-55
2024/02/09 07:19:36;;;;;;;14.35;2.75;;;14.90;50.80;;;;;;5034652;28;20060;-65
2024/02/09 07:22:05;;;;;;;10.68;3.13;;;15.00;51.40;;;;;;5030569;28;20061;-57
2024/02/09 07:24:33;;;;;;;44.42;4.07;;;15.10;50.70;;;;;;5023151;28;20072;-55
2024/02/09 07:27:03;;;;;;;9.93;2.80;;;15.20;51.00;;;;;;5032371;28;20168;-56
2024/02/09 07:29:32;;;;;;;5.43;2.58;;;15.30;50.70;;;;;;5033762;28;20127;-57
2024/02/09 07:32:01;;;;;;;8.30;3.15;;;15.40;50.60;;;;;;5032723;28;20135;-57
2024/02/09 07:34:30;;;;;;;11.23;3.72;;;15.50;50.50;;;;;;5023073;28;20138;-65
2024/02/09 07:36:58;;;;;;;4.70;2.25;;;15.50;50.70;;;;;;5029357;28;20049;-65
2024/02/09 07:39:27;;;;;;;20.75;6.88;;;15.60;50.50;;;;;;5035259;28;20056;-58
2024/02/09 07:41:55;;;;;;;13.60;5.75;;;15.60;50.40;;;;;;5032868;28;20057;-58
2024/02/09 07:44:26;;;;;;;4.65;2.65;;;15.70;50.50;;;;;;5031254;28;20460;-59
2024/02/09 07:46:54;;;;;;;9.38;3.63;;;15.70;50.40;;;;;;4981776;28;20045;-57
2024/02/09 07:49:26;;;;;;;15.98;4.68;;;15.70;50.40;;;;;;5017481;28;20053;-57
2024/02/09 07:51:54;;;;;;;6.72;3.10;;;15.80;50.40;;;;;;5027798;28;20049;-58
2024/02/09 07:54:23;;;;;;;7.50;3.28;;;15.80;50.40;;;;;;5028664;28;20084;-58
2024/02/09 07:56:51;;;;;;;20.60;5.00;;;15.90;50.40;;;;;;5027408;28;20057;-57
2024/02/09 07:59:20;;;;;;;24.40;4.72;;;16.00;50.30;;;;;;5026683;28;20115;-55
2024/02/09 08:01:50;;;;;;;9.90;4.28;;;16.10;50.30;;;;;;5025456;28;20053;-53
2024/02/09 08:04:21;;;;;;;22.95;4.60;;;16.20;50.20;;;;;;5015127;28;20076;-53
2024/02/09 08:06:50;;;;;;;19.40;3.63;;;16.30;50.00;;;;;;5025397;28;20125;-55
2024/02/09 08:09:18;;;;;;;39.13;5.35;;;16.40;50.60;;;;;;5027591;28;20069;-56
2024/02/09 08:11:48;;;;;;;9.15;3.97;;;16.50;49.90;;;;;;5035229;28;20053;-53
2024/02/09 08:14:16;;;;;;;9.18;3.42;;;16.60;49.90;;;;;;5024991;28;20052;-52
2024/02/09 08:16:46;;;;;;;8.40;3.60;;;16.70;49.70;;;;;;5011390;28;20057;-53
2024/02/09 08:19:17;;;;;;;10.93;3.75;;;16.70;49.70;;;;;;5044843;28;20740;-52
2024/02/09 08:21:45;;;;;;;10.82;4.20;;;16.80;49.60;;;;;;5027059;28;21351;-55
2024/02/09 08:24:14;;;;;;;31.92;9.80;;;16.80;49.60;;;;;;5025458;28;20064;-54
2024/02/09 08:26:43;;;;;;;9.50;4.72;;;16.80;49.70;;;;;;5022988;28;20059;-62
2024/02/09 08:29:21;;;;;;;15.30;3.88;;;17.00;49.90;;;;;;5027555;28;20075;-54
2024/02/09 08:31:49;;;;;;;20.27;4.35;;;17.10;49.80;;;;;;5027267;28;20052;-50
2024/02/09 08:34:20;;;;;;;25.08;6.38;;;17.30;49.80;;;;;;5030403;28;20080;-50
2024/02/09 08:36:49;;;;;;;23.50;6.50;;;17.60;49.80;;;;;;5018119;28;20065;-53
2024/02/09 08:39:18;;;;;;;13.38;4.25;;;17.80;49.60;;;;;;5026115;28;20044;-53
2024/02/09 08:41:46;;;;;;;21.08;6.00;;;18.10;49.50;;;;;;5026472;28;20076;-56
2024/02/09 08:44:14;;;;;;;8.73;4.05;;;18.40;49.30;;;;;;5028048;28;20053;-53
2024/02/09 08:46:44;;;;;;;20.02;5.93;;;18.60;49.00;;;;;;5020766;28;20130;-53
2024/02/09 08:49:14;;;;;;;14.25;6.10;;;18.90;48.90;;;;;;5027449;28;20139;-55
2024/02/09 08:51:44;;;;;;;14.65;4.28;;;19.20;48.90;;;;;;5028994;28;20161;-55
2024/02/09 08:54:14;;;;;;;12.73;5.05;;;19.70;48.70;;;;;;5024713;28;20125;-56
2024/02/09 08:56:43;;;;;;;47.10;11.73;;;20.10;48.40;;;;;;5019777;28;20052;-60
2024/02/09 08:59:11;;;;;;;62.25;17.83;;;20.60;48.10;;;;;;5027727;28;20839;-56
2024/02/09 09:01:42;;;;;;;17.23;5.20;;;21.10;48.30;;;;;;5028796;28;20048;-54
2024/02/09 09:04:13;;;;;;;32.72;8.30;;;21.50;47.10;;;;;;5027109;28;20959;-56
2024/02/09 09:06:44;;;;;;;35.03;10.70;;;21.60;46.40;;;;;;5018742;28;20146;-57
2024/02/09 09:09:14;;;;;;;18.70;4.47;;;21.50;46.00;;;;;;5028523;28;20067;-59
2024/02/09 09:11:45;;;;;;;19.83;3.85;;;21.40;46.10;;;;;;5025013;28;20502;-58
2024/02/09 09:14:13;;;;;;;7.15;3.55;;;21.30;46.10;;;;;;5023550;28;20053;-58
2024/02/09 09:16:42;;;;;;;20.58;4.72;;;21.20;46.70;;;;;;5021173;28;20059;-56
2024/02/09 09:19:10;;;;;;;13.40;3.95;;;21.10;46.10;;;;;;5028105;28;20057;-57
2024/02/09 09:21:40;;;;;;;6.28;3.85;;;21.00;46.10;;;;;;5026629;28;20049;-53
2024/02/09 09:24:10;;;;;;;12.55;5.20;;;20.90;46.00;;;;;;5028610;28;20061;-52
2024/02/09 09:26:38;;;;;;;13.32;4.47;;;20.90;46.10;;;;;;5021625;28;20063;-52
2024/02/09 09:29:08;;;;;;;13.85;5.95;;;20.80;46.00;;;;;;5026686;28;20073;-64
2024/02/09 09:31:36;;;;;;;21.42;6.63;;;20.80;46.10;;;;;;5024188;28;20060;-54
2024/02/09 09:34:04;;;;;;;13.73;4.63;;;20.80;46.10;;;;;;5014915;28;20064;-56
2024/02/09 09:36:33;;;;;;;11.63;3.95;;;20.80;46.00;;;;;;5019782;28;20164;-53
2024/02/09 09:39:05;;;;;;;15.60;3.97;;;20.80;46.00;;;;;;5027650;28;20068;-56
2024/02/09 09:41:37;;;;;;;12.00;3.92;;;20.70;45.90;;;;;;5007983;28;20606;-55
2024/02/09 09:44:08;;;;;;;11.00;4.65;;;20.70;45.70;;;;;;5019636;28;20137;-51
2024/02/09 09:46:41;;;;;;;25.80;4.57;;;20.70;45.80;;;;;;5005374;28;20076;-52
2024/02/09 09:49:10;;;;;;;7.82;3.78;;;20.60;45.70;;;;;;5022220;28;20176;-57
2024/02/09 09:51:45;;;;;;;10.50;4.22;;;20.60;45.80;;;;;;5027583;28;20053;-52
2024/02/09 09:54:17;;;;;;;12.13;4.10;;;20.70;45.80;;;;;;5027840;28;20049;-53
2024/02/09 09:56:48;;;;;;;8.65;4.22;;;20.80;45.80;;;;;;5020681;28;20077;-52
2024/02/09 09:59:18;;;;;;;13.40;5.18;;;20.90;45.70;;;;;;5009547;28;20211;-58
2024/02/09 10:01:48;;;;;;;18.08;4.90;;;21.10;45.70;;;;;;5026536;28;20060;-54
2024/02/09 10:04:18;;;;;;;14.50;4.32;;;21.30;45.50;;;;;;5028854;28;20049;-52
2024/02/09 10:06:47;;;;;;;11.60;4.38;;;21.40;45.40;;;;;;5019801;28;20060;-61
2024/02/09 10:09:16;;;;;;;12.52;4.38;;;21.50;45.10;;;;;;5029313;28;20060;-57
2024/02/09 10:11:46;;;;;;;10.65;4.28;;;21.60;45.00;;;;;;5033129;28;20064;-55
2024/02/09 10:14:16;;;;;;;14.70;4.60;;;21.70;45.10;;;;;;5032138;28;20053;-59
2024/02/09 10:16:46;;;;;;;15.48;4.20;;;21.70;44.90;;;;;;5023051;28;20139;-60
2024/02/09 10:19:16;;;;;;;19.00;5.05;;;21.70;44.70;;;;;;5033582;28;20040;-54
2024/02/09 10:21:47;;;;;;;9.93;3.85;;;21.80;44.70;;;;;;5025937;28;20485;-60
2024/02/09 10:24:18;;;;;;;10.88;4.32;;;21.80;44.60;;;;;;5031439;28;20529;-55
2024/02/09 10:26:49;;;;;;;18.23;5.82;;;21.80;44.60;;;;;;5020892;28;20835;-67
2024/02/09 10:29:20;;;;;;;18.98;5.13;;;21.90;44.90;;;;;;5028331;28;20053;-58
2024/02/09 10:31:53;;;;;;;9.45;4.50;;;22.00;44.50;;;;;;5027821;28;20074;-54
2024/02/09 10:34:23;;;;;;;12.52;4.53;;;22.00;44.30;;;;;;5019838;28;20061;-55
2024/02/09 10:36:56;;;;;;;15.55;4.72;;;22.10;44.30;;;;;;5020607;28;20113;-52
2024/02/09 10:39:25;;;;;;;17.35;4.75;;;22.40;44.20;;;;;;5030162;28;20060;-55
2024/02/09 10:41:54;;;;;;;18.35;12.50;;;22.50;44.00;;;;;;4927529;28;991781;-53
2024/02/09 10:44:32;;;;;;;13.07;4.70;;;22.50;43.80;;;;;;5031100;28;20070;-54
2024/02/09 10:47:02;;;;;;;12.52;4.78;;;22.60;43.70;;;;;;5042524;28;20409;-56
2024/02/09 10:49:39;;;;;;;10.73;4.45;;;22.60;43.60;;;;;;5027858;28;20057;-57
2024/02/09 10:52:12;;;;;;;15.63;5.78;;;22.70;43.80;;;;;;5023799;28;20049;-55
2024/02/09 10:54:48;;;;;;;12.88;5.25;;;22.70;43.60;;;;;;5019279;28;20355;-61
2024/02/09 10:57:17;;;;;;;14.95;6.05;;;22.70;43.40;;;;;;5029833;28;20088;-57
2024/02/09 10:59:48;;;;;;;11.18;4.15;;;22.60;43.40;;;;;;5030681;28;20122;-57
2024/02/09 11:02:17;;;;;;;16.10;5.53;;;22.50;43.30;;;;;;5025320;28;20168;-58
2024/02/09 11:04:46;;;;;;;8.10;4.90;;;22.40;43.40;;;;;;5008471;28;21429;-61
2024/02/09 11:07:15;;;;;;;18.58;5.05;;;22.30;43.40;;;;;;5028233;28;20057;-56
2024/02/09 11:09:44;;;;;;;32.85;5.25;;;22.10;43.40;;;;;;5019754;28;20122;-56
2024/02/09 11:12:13;;;;;;;10.90;5.65;;;22.00;43.60;;;;;;5026966;28;20182;-53
2024/02/09 11:14:44;;;;;;;22.08;4.60;;;22.00;43.70;;;;;;5025930;28;20760;-51
2024/02/09 11:17:18;;;;;;;10.52;4.22;;;22.00;43.60;;;;;;5024264;28;20140;-55
2024/02/09 11:19:48;;;;;;;10.43;4.45;;;21.90;43.60;;;;;;5020803;28;20083;-56
2024/02/09 11:22:19;;;;;;;12.25;4.55;;;21.80;43.60;;;;;;5029954;28;20064;-56
2024/02/09 11:24:48;;;;;;;9.63;4.40;;;21.80;43.70;;;;;;5019900;28;20064;-54
2024/02/09 11:27:19;;;;;;;13.50;5.05;;;21.80;43.80;;;;;;5027598;28;20065;-54
2024/02/09 11:29:47;;;;;;;10.07;4.53;;;21.80;43.70;;;;;;5018815;28;20045;-55
2024/02/09 11:32:19;;;;;;;18.35;4.85;;;21.80;43.70;;;;;;5029873;28;20474;-54
2024/02/09 11:34:48;;;;;;;16.25;5.32;;;21.80;43.70;;;;;;5020031;28;20084;-55
2024/02/09 11:37:17;;;;;;;16.50;4.65;;;21.90;43.90;;;;;;5026018;28;20836;-52
2024/02/09 11:39:47;;;;;;;12.57;5.53;;;21.90;43.70;;;;;;5028347;28;20068;-64
2024/02/09 11:42:29;;;;;;;12.23;5.72;;;21.90;43.60;;;;;;5012639;28;20072;-53
2024/02/09 11:45:02;;;;;;;13.27;4.70;;;21.90;43.50;;;;;;5029304;28;20064;-54
2024/02/09 11:47:33;;;;;;;8.73;4.10;;;21.80;43.40;;;;;;5027469;28;20487;-56
2024/02/09 11:50:01;;;;;;;16.98;3.97;;;21.80;43.40;;;;;;5027151;28;20055;-54
2024/02/09 11:52:30;;;;;;;9.30;4.50;;;21.70;43.30;;;;;;5027005;28;20053;-54
2024/02/09 11:55:01;;;;;;;18.73;5.80;;;21.60;43.40;;;;;;5023171;28;20064;-52
2024/02/09 11:57:30;;;;;;;13.73;4.00;;;21.50;43.50;;;;;;5029036;28;20731;-57
2024/02/09 11:59:59;;;;;;;29.10;6.03;;;21.60;43.70;;;;;;5029327;28;20055;-52
2024/02/09 12:02:31;;;;;;;12.68;4.97;;;21.70;43.80;;;;;;5025000;28;20089;-58
2024/02/09 12:05:05;;;;;;;14.23;5.55;;;21.70;43.50;;;;;;5021232;28;20170;-52
2024/02/09 12:07:35;;;;;;;12.35;3.95;;;21.70;43.50;;;;;;5025857;28;20064;-58
2024/02/09 12:10:05;;;;;;;12.55;3.70;;;21.80;43.40;;;;;;5024875;28;20114;-55
2024/02/09 12:12:38;;;;;;;13.70;4.15;;;21.70;43.30;;;;;;5026889;28;20170;-54
2024/02/09 12:15:07;;;;;;;17.67;4.68;;;21.60;43.30;;;;;;5023637;28;20051;-54
2024/02/09 12:17:36;;;;;;;11.95;4.57;;;21.40;43.40;;;;;;5024513;28;20674;-55
2024/02/09 12:20:09;;;;;;;13.32;3.92;;;21.40;43.60;;;;;;5025636;28;20068;-52
2024/02/09 12:22:39;;;;;;;17.63;5.35;;;21.50;43.70;;;;;;5026534;28;20107;-53
2024/02/09 12:25:13;;;;;;;7.30;3.50;;;21.50;43.50;;;;;;5023986;28;20103;-53
2024/02/09 12:27:42;;;;;;;19.15;4.68;;;21.60;43.60;;;;;;5030662;28;20060;-51
2024/02/09 12:30:12;;;;;;;11.13;4.47;;;21.70;43.50;;;;;;5027685;28;20060;-50
2024/02/09 12:32:43;;;;;;;8.80;3.75;;;21.80;43.40;;;;;;5030999;28;20073;-54
2024/02/09 12:35:14;;;;;;;20.60;4.28;;;21.80;43.20;;;;;;5025949;28;21091;-52
2024/02/09 12:37:43;;;;;;;11.18;4.13;;;21.90;43.30;;;;;;5027488;28;20052;-49
2024/02/09 12:40:16;;;;;;;10.73;4.05;;;21.90;43.20;;;;;;5031572;28;20056;-54
2024/02/09 12:42:45;;;;;;;10.15;4.47;;;21.90;43.20;;;;;;5011842;28;20196;-55
2024/02/09 12:45:13;;;;;;;31.00;4.68;;;22.00;43.30;;;;;;5019688;28;20712;-50
2024/02/09 12:47:44;;;;;;;30.42;5.35;;;22.00;43.20;;;;;;5026879;28;20535;-50
2024/02/09 12:50:20;;;;;;;9.25;3.60;;;22.00;43.20;;;;;;5028500;28;20135;-54
2024/02/09 12:52:50;;;;;;;8.48;3.47;;;22.00;43.10;;;;;;5027809;28;20140;-52
2024/02/09 12:55:19;;;;;;;6.40;3.83;;;22.00;43.10;;;;;;5023277;28;20057;-53
2024/02/09 12:57:49;;;;;;;7.07;3.83;;;22.10;43.10;;;;;;5028123;28;20695;-53
2024/02/09 13:00:18;;;;;;;12.95;4.18;;;22.10;43.00;;;;;;5026306;28;20049;-53
2024/02/09 13:02:46;;;;;;;16.35;4.50;;;22.10;43.00;;;;;;5023361;28;20064;-55
2024/02/09 13:05:16;;;;;;;22.38;5.85;;;22.10;43.00;;;;;;5015690;28;20049;-57
2024/02/09 13:07:45;;;;;;;14.80;4.60;;;22.20;43.00;;;;;;5023486;28;20065;-54
2024/02/09 13:10:15;;;;;;;11.52;5.28;;;22.30;43.30;;;;;;5029644;28;20406;-52
2024/02/09 13:12:44;;;;;;;6.80;3.15;;;22.50;43.00;;;;;;5027823;28;20274;-49
2024/02/09 13:15:13;;;;;;;21.10;4.93;;;22.50;42.80;;;;;;5018521;28;20208;-55
2024/02/09 13:17:42;;;;;;;16.17;4.35;;;22.50;42.70;;;;;;5028313;28;20486;-52
2024/02/09 13:20:12;;;;;;;11.88;4.13;;;22.50;42.70;;;;;;5028080;28;20053;-50
2024/02/09 13:22:42;;;;;;;7.82;4.45;;;22.60;42.90;;;;;;5027238;28;20061;-54
2024/02/09 13:25:13;;;;;;;10.27;5.00;;;22.60;42.90;;;;;;5028244;28;20148;-51
2024/02/09 13:27:45;;;;;;;7.70;4.28;;;22.70;42.70;;;;;;5027968;28;20157;-50
2024/02/09 13:30:20;;;;;;;10.15;4.15;;;22.70;42.60;;;;;;5030840;28;20540;-50
2024/02/09 13:32:49;;;;;;;10.75;4.70;;;22.70;42.50;;;;;;5029402;28;20522;-52
2024/02/09 13:37:58;;;;;;;19.42;4.03;;;22.60;42.40;;;;;;5043615;27;20408;-51
2024/02/09 13:40:27;;;;;;;13.68;4.82;;;22.50;42.70;;;;;;5046511;27;20057;-54
2024/02/09 13:42:55;;;;;;;10.05;5.18;;;22.40;42.60;;;;;;5042996;28;20151;-50
2024/02/09 13:45:25;;;;;;;10.05;4.50;;;22.30;42.60;;;;;;5047160;28;20182;-50
2024/02/09 13:47:55;;;;;;;62.65;18.98;;;22.30;42.70;;;;;;5037693;27;20493;-50
2024/02/09 13:50:25;;;;;;;30.35;5.47;;;22.20;42.60;;;;;;5044633;28;20122;-53
2024/02/09 13:52:54;;;;;;;13.38;5.85;;;22.20;42.70;;;;;;5043350;27;20057;-53
2024/02/09 13:55:25;;;;;;;10.65;4.40;;;22.20;42.70;;;;;;5062553;27;20080;-52
2024/02/09 13:57:54;;;;;;;11.05;5.68;;;22.20;42.70;;;;;;5038549;27;20052;-53
2024/02/09 14:00:24;;;;;;;27.40;5.07;;;22.10;42.70;;;;;;5046810;28;20057;-49
2024/02/09 14:02:53;;;;;;;9.15;4.10;;;22.10;42.70;;;;;;5025807;28;20059;-53
2024/02/09 14:05:21;;;;;;;12.05;4.22;;;22.10;42.80;;;;;;5023653;28;20061;-55
2024/02/09 14:07:51;;;;;;;10.15;5.32;;;22.00;42.80;;;;;;5017320;28;20052;-55
2024/02/09 14:10:20;;;;;;;10.15;3.97;;;22.00;42.90;;;;;;5025153;28;20135;-52
2024/02/09 14:12:52;;;;;;;14.90;4.15;;;21.90;42.70;;;;;;5022821;28;20618;-51
2024/02/09 14:15:20;;;;;;;19.23;5.00;;;21.80;42.70;;;;;;5018889;28;20061;-54
2024/02/09 14:17:49;;;;;;;28.65;5.20;;;21.80;42.90;;;;;;5024388;28;20410;-53
2024/02/09 14:20:22;;;;;;;20.92;5.80;;;21.70;42.90;;;;;;5018899;28;20065;-52
2024/02/09 14:22:53;;;;;;;12.82;4.00;;;21.70;43.00;;;;;;5021287;28;20538;-56
2024/02/09 14:25:21;;;;;;;35.30;11.68;;;21.60;43.00;;;;;;5021000;28;20061;-53
2024/02/09 14:27:53;;;;;;;19.33;5.60;;;21.50;43.70;;;;;;5019035;28;20061;-51
2024/02/09 14:30:22;;;;;;;11.30;5.15;;;21.50;43.10;;;;;;5021451;28;20057;-51
2024/02/09 14:32:54;;;;;;;16.58;4.72;;;21.40;43.20;;;;;;5016827;28;20148;-52
2024/02/09 14:35:23;;;;;;;38.67;5.65;;;21.40;43.30;;;;;;5024699;28;20079;-50
2024/02/09 14:37:51;;;;;;;13.00;4.55;;;21.30;43.30;;;;;;5022413;28;20919;-54
2024/02/09 14:40:19;;;;;;;10.57;4.43;;;21.20;43.30;;;;;;5011595;28;20042;-51
2024/02/09 14:42:48;;;;;;;21.98;11.85;;;21.20;43.40;;;;;;4998846;28;20081;-53
2024/02/09 14:45:18;;;;;;;13.05;5.90;;;21.10;43.50;;;;;;5003404;28;20050;-52
2024/02/09 14:47:48;;;;;;;14.60;4.53;;;21.10;43.50;;;;;;4996317;28;20053;-55